Aeroporto :
LOGIN :

Iscrizione | Disclaimer

   EN    FR    IT 

 










Sommario :    VFR   VFR Marginale   IFR   IFR Intensivo   IFR Molto Intensivo
Visibilità : 
Base nubi : 
>= 8 km
>= 3000ft
5 / 8 km
1000 / 3000 ft
1500m / 5 km
500 / 1000 ft
800 / 1500m
200 / 500 ft
< 800m
< 200 ft
Simboli :   Temporali  Nebbia  Neve Forte  Precipitazioni Forti  Vento > 20 kt
SIGMETs :   Varie  Temporali  Ghiacco  Turbolenza  Onda orograficha  Ceneri Vulcaniche






- Altitudine del aeroporto : 191 ft
- Codice IATA : RNB


ESDF - Ronneby

ULTIMO METAR :
  • 311920Z AUTO 15007KT 2200 DZ BR BKN003/// OVC006/// 11/11 Q1019

METARs OBSOLETI :
  • 311850Z AUTO 15009KT 5000 DZ BR OVC004/// 10/10 Q1019
  • 311820Z AUTO 15009KT 9999 OVC004/// 11/10 Q1019
  • 311750Z AUTO 15007KT 9999 OVC005/// 10/10 Q1019
  • 311720Z AUTO 15007KT 9999 OVC005/// 10/10 Q1020
  • 311650Z AUTO 14008KT 9999 OVC006/// 10/10 Q1020

TAF TAF ESDF
Valido dal 31 a 18 ore il 31 a 21 ore UTC


311730Z 3118/3121 15008KT 9999 OVC006
PROB40 3118/3121 0300 FG VV002



MetMap, La meteo Aeronautica in un colpo d'occhio ! - Copyright ORBIFLY Dicembre 2007 - Disclaimer

ORBIFLY MET'MAP TEAM :

Programmazione e sviluppo : Alexandra Zaïnal
Concezione : Baudouin d'Aumeries
Aiuto per la programmazione : Marc-Olivier Méhu
Supporto tecnico e logistico : Manuel Goepfert
Aiuto per la traduzione : Arnaldo La Scala

Contatto : metmap@orbifly.com




FONTI E CREDITI :

   NOAA